sensor_id;sensor_type;location;lat;lon;timestamp;temperature;humidity
12893;DHT22;6514;48.606;9.222;2023-07-30T00:01:52;17.60;99.90
12893;DHT22;6514;48.606;9.222;2023-07-30T00:04:18;17.60;99.90
12893;DHT22;6514;48.606;9.222;2023-07-30T00:06:46;17.50;99.90
12893;DHT22;6514;48.606;9.222;2023-07-30T00:09:14;17.40;99.90
12893;DHT22;6514;48.606;9.222;2023-07-30T00:11:41;17.40;99.90
12893;DHT22;6514;48.606;9.222;2023-07-30T00:14:08;17.40;99.90
12893;DHT22;6514;48.606;9.222;2023-07-30T00:16:35;17.40;99.90
12893;DHT22;6514;48.606;9.222;2023-07-30T00:19:02;17.40;99.90
12893;DHT22;6514;48.606;9.222;2023-07-30T00:21:28;17.40;99.90
12893;DHT22;6514;48.606;9.222;2023-07-30T00:23:55;17.50;99.90
12893;DHT22;6514;48.606;9.222;2023-07-30T00:26:22;17.50;99.90
12893;DHT22;6514;48.606;9.222;2023-07-30T00:28:51;17.50;99.90
12893;DHT22;6514;48.606;9.222;2023-07-30T00:31:18;17.60;99.90
12893;DHT22;6514;48.606;9.222;2023-07-30T00:33:45;17.60;99.90
12893;DHT22;6514;48.606;9.222;2023-07-30T00:36:11;17.60;99.90
12893;DHT22;6514;48.606;9.222;2023-07-30T00:38:37;17.70;99.90
12893;DHT22;6514;48.606;9.222;2023-07-30T00:41:04;17.70;99.90
12893;DHT22;6514;48.606;9.222;2023-07-30T00:43:32;17.70;99.90
12893;DHT22;6514;48.606;9.222;2023-07-30T00:45:59;17.70;99.90
12893;DHT22;6514;48.606;9.222;2023-07-30T00:48:26;17.70;99.90
12893;DHT22;6514;48.606;9.222;2023-07-30T00:50:52;17.70;99.90
12893;DHT22;6514;48.606;9.222;2023-07-30T00:53:20;17.70;99.90
12893;DHT22;6514;48.606;9.222;2023-07-30T00:55:48;17.60;99.90
12893;DHT22;6514;48.606;9.222;2023-07-30T00:58:15;17.60;99.90
12893;DHT22;6514;48.606;9.222;2023-07-30T01:00:45;17.60;99.90
12893;DHT22;6514;48.606;9.222;2023-07-30T01:03:12;17.60;99.90
12893;DHT22;6514;48.606;9.222;2023-07-30T01:05:39;17.60;99.90
12893;DHT22;6514;48.606;9.222;2023-07-30T01:08:06;17.60;99.90
12893;DHT22;6514;48.606;9.222;2023-07-30T01:10:33;17.50;99.90
12893;DHT22;6514;48.606;9.222;2023-07-30T01:13:01;17.50;99.90
12893;DHT22;6514;48.606;9.222;2023-07-30T01:15:30;17.50;99.90
12893;DHT22;6514;48.606;9.222;2023-07-30T01:17:58;17.50;99.90
12893;DHT22;6514;48.606;9.222;2023-07-30T01:20:29;17.40;99.90
12893;DHT22;6514;48.606;9.222;2023-07-30T01:22:57;17.40;99.90
12893;DHT22;6514;48.606;9.222;2023-07-30T01:25:27;17.50;99.90
12893;DHT22;6514;48.606;9.222;2023-07-30T01:27:59;17.40;99.90
12893;DHT22;6514;48.606;9.222;2023-07-30T01:30:29;17.40;99.90
12893;DHT22;6514;48.606;9.222;2023-07-30T01:32:57;17.40;99.90
12893;DHT22;6514;48.606;9.222;2023-07-30T01:35:26;17.40;99.90
12893;DHT22;6514;48.606;9.222;2023-07-30T01:37:54;17.40;99.90
12893;DHT22;6514;48.606;9.222;2023-07-30T01:40:23;17.30;99.90
12893;DHT22;6514;48.606;9.222;2023-07-30T01:42:50;17.30;99.90
12893;DHT22;6514;48.606;9.222;2023-07-30T01:45:17;17.30;99.90
12893;DHT22;6514;48.606;9.222;2023-07-30T01:47:44;17.30;99.90
12893;DHT22;6514;48.606;9.222;2023-07-30T01:50:11;17.30;99.90
12893;DHT22;6514;48.606;9.222;2023-07-30T01:52:37;17.20;99.90
12893;DHT22;6514;48.606;9.222;2023-07-30T01:55:05;17.20;99.90
12893;DHT22;6514;48.606;9.222;2023-07-30T01:57:33;17.20;99.90
12893;DHT22;6514;48.606;9.222;2023-07-30T02:00:00;17.10;99.90
12893;DHT22;6514;48.606;9.222;2023-07-30T02:02:27;17.10;99.90
12893;DHT22;6514;48.606;9.222;2023-07-30T02:04:53;17.10;99.90
12893;DHT22;6514;48.606;9.222;2023-07-30T02:07:20;17.00;99.90
12893;DHT22;6514;48.606;9.222;2023-07-30T02:09:47;17.00;99.90
12893;DHT22;6514;48.606;9.222;2023-07-30T02:12:14;16.90;99.90
12893;DHT22;6514;48.606;9.222;2023-07-30T02:14:42;16.90;99.90
12893;DHT22;6514;48.606;9.222;2023-07-30T02:17:09;16.80;99.90
12893;DHT22;6514;48.606;9.222;2023-07-30T02:19:36;16.80;99.90
12893;DHT22;6514;48.606;9.222;2023-07-30T02:22:03;16.80;99.90
12893;DHT22;6514;48.606;9.222;2023-07-30T02:24:30;16.70;99.90
12893;DHT22;6514;48.606;9.222;2023-07-30T02:26:56;16.70;99.90
12893;DHT22;6514;48.606;9.222;2023-07-30T02:29:23;16.70;99.90
12893;DHT22;6514;48.606;9.222;2023-07-30T02:31:52;16.70;99.90
12893;DHT22;6514;48.606;9.222;2023-07-30T02:34:18;16.60;99.90
12893;DHT22;6514;48.606;9.222;2023-07-30T02:36:45;16.60;99.90
12893;DHT22;6514;48.606;9.222;2023-07-30T02:39:12;16.60;99.90
12893;DHT22;6514;48.606;9.222;2023-07-30T02:41:38;16.60;99.90
12893;DHT22;6514;48.606;9.222;2023-07-30T02:44:05;16.60;99.90
12893;DHT22;6514;48.606;9.222;2023-07-30T02:46:32;16.60;99.90
12893;DHT22;6514;48.606;9.222;2023-07-30T02:49:00;16.60;99.90
12893;DHT22;6514;48.606;9.222;2023-07-30T02:51:27;16.70;99.90
12893;DHT22;6514;48.606;9.222;2023-07-30T02:53:57;16.70;99.90
12893;DHT22;6514;48.606;9.222;2023-07-30T02:56:23;16.70;99.90
12893;DHT22;6514;48.606;9.222;2023-07-30T02:58:50;16.70;99.90
12893;DHT22;6514;48.606;9.222;2023-07-30T03:01:17;16.70;99.90
12893;DHT22;6514;48.606;9.222;2023-07-30T03:03:44;16.70;99.90
12893;DHT22;6514;48.606;9.222;2023-07-30T03:06:12;16.70;99.90
12893;DHT22;6514;48.606;9.222;2023-07-30T03:08:39;16.70;99.90
12893;DHT22;6514;48.606;9.222;2023-07-30T03:11:06;16.70;99.90
12893;DHT22;6514;48.606;9.222;2023-07-30T03:13:33;16.60;99.90
12893;DHT22;6514;48.606;9.222;2023-07-30T03:15:59;16.60;99.90
12893;DHT22;6514;48.606;9.222;2023-07-30T03:18:26;16.60;99.90
12893;DHT22;6514;48.606;9.222;2023-07-30T03:20:58;16.60;99.90
12893;DHT22;6514;48.606;9.222;2023-07-30T03:23:26;16.50;99.90
12893;DHT22;6514;48.606;9.222;2023-07-30T03:25:53;16.50;99.90
12893;DHT22;6514;48.606;9.222;2023-07-30T03:28:20;16.50;99.90
12893;DHT22;6514;48.606;9.222;2023-07-30T03:30:46;16.50;99.90
12893;DHT22;6514;48.606;9.222;2023-07-30T03:33:13;16.60;99.90
12893;DHT22;6514;48.606;9.222;2023-07-30T03:35:40;16.50;99.90
12893;DHT22;6514;48.606;9.222;2023-07-30T03:38:07;16.60;99.90
12893;DHT22;6514;48.606;9.222;2023-07-30T03:40:35;16.50;99.90
12893;DHT22;6514;48.606;9.222;2023-07-30T03:43:01;16.60;99.90
12893;DHT22;6514;48.606;9.222;2023-07-30T03:45:28;16.60;99.90
12893;DHT22;6514;48.606;9.222;2023-07-30T03:47:55;16.60;99.90
12893;DHT22;6514;48.606;9.222;2023-07-30T03:50:22;16.60;99.90
12893;DHT22;6514;48.606;9.222;2023-07-30T03:52:48;16.60;99.90
12893;DHT22;6514;48.606;9.222;2023-07-30T03:55:15;16.60;99.90
12893;DHT22;6514;48.606;9.222;2023-07-30T03:57:43;16.60;99.90
12893;DHT22;6514;48.606;9.222;2023-07-30T04:00:11;16.70;99.90
12893;DHT22;6514;48.606;9.222;2023-07-30T04:02:38;16.60;99.90
12893;DHT22;6514;48.606;9.222;2023-07-30T04:05:05;16.60;99.90
12893;DHT22;6514;48.606;9.222;2023-07-30T04:07:32;16.60;99.90
12893;DHT22;6514;48.606;9.222;2023-07-30T04:09:58;16.70;99.90
12893;DHT22;6514;48.606;9.222;2023-07-30T04:12:25;16.70;99.90
12893;DHT22;6514;48.606;9.222;2023-07-30T04:14:53;16.70;99.90
12893;DHT22;6514;48.606;9.222;2023-07-30T04:17:20;16.80;99.90
12893;DHT22;6514;48.606;9.222;2023-07-30T04:19:47;16.80;99.90
12893;DHT22;6514;48.606;9.222;2023-07-30T04:22:14;16.80;99.90
12893;DHT22;6514;48.606;9.222;2023-07-30T04:24:40;16.80;99.90
12893;DHT22;6514;48.606;9.222;2023-07-30T04:27:07;16.90;99.90
12893;DHT22;6514;48.606;9.222;2023-07-30T04:29:34;16.90;99.90
12893;DHT22;6514;48.606;9.222;2023-07-30T04:32:02;16.90;99.90
12893;DHT22;6514;48.606;9.222;2023-07-30T04:34:29;16.90;99.90
12893;DHT22;6514;48.606;9.222;2023-07-30T04:36:56;16.90;99.90
12893;DHT22;6514;48.606;9.222;2023-07-30T04:39:23;16.90;99.90
12893;DHT22;6514;48.606;9.222;2023-07-30T04:41:49;17.00;99.90
12893;DHT22;6514;48.606;9.222;2023-07-30T04:44:16;16.90;99.90
12893;DHT22;6514;48.606;9.222;2023-07-30T04:46:43;16.90;99.90
12893;DHT22;6514;48.606;9.222;2023-07-30T04:49:11;16.90;99.90
12893;DHT22;6514;48.606;9.222;2023-07-30T04:51:38;16.90;99.90
12893;DHT22;6514;48.606;9.222;2023-07-30T04:54:05;16.90;99.90
12893;DHT22;6514;48.606;9.222;2023-07-30T04:56:32;16.90;99.90
12893;DHT22;6514;48.606;9.222;2023-07-30T04:58:59;16.90;99.90
12893;DHT22;6514;48.606;9.222;2023-07-30T05:01:25;16.90;99.90
12893;DHT22;6514;48.606;9.222;2023-07-30T05:03:52;17.00;99.90
12893;DHT22;6514;48.606;9.222;2023-07-30T05:06:22;17.00;99.90
12893;DHT22;6514;48.606;9.222;2023-07-30T05:08:49;17.10;99.90
12893;DHT22;6514;48.606;9.222;2023-07-30T05:11:16;17.20;99.90
12893;DHT22;6514;48.606;9.222;2023-07-30T05:13:42;17.20;99.90
12893;DHT22;6514;48.606;9.222;2023-07-30T05:16:09;17.30;99.90
12893;DHT22;6514;48.606;9.222;2023-07-30T05:18:36;17.30;99.90
12893;DHT22;6514;48.606;9.222;2023-07-30T05:21:03;17.40;99.90
12893;DHT22;6514;48.606;9.222;2023-07-30T05:23:31;17.50;99.90
12893;DHT22;6514;48.606;9.222;2023-07-30T05:25:58;17.50;99.90
12893;DHT22;6514;48.606;9.222;2023-07-30T05:28:25;17.50;99.90
12893;DHT22;6514;48.606;9.222;2023-07-30T05:30:52;17.50;99.90
12893;DHT22;6514;48.606;9.222;2023-07-30T05:33:19;17.60;99.90
12893;DHT22;6514;48.606;9.222;2023-07-30T05:35:45;17.80;99.90
12893;DHT22;6514;48.606;9.222;2023-07-30T05:38:13;17.90;99.90
12893;DHT22;6514;48.606;9.222;2023-07-30T05:40:41;17.90;99.90
12893;DHT22;6514;48.606;9.222;2023-07-30T05:43:08;18.00;99.90
12893;DHT22;6514;48.606;9.222;2023-07-30T05:45:35;18.00;99.90
12893;DHT22;6514;48.606;9.222;2023-07-30T05:48:02;18.00;99.90
12893;DHT22;6514;48.606;9.222;2023-07-30T05:50:28;18.00;99.90
12893;DHT22;6514;48.606;9.222;2023-07-30T05:52:55;18.00;99.90
12893;DHT22;6514;48.606;9.222;2023-07-30T05:55:22;18.00;99.90
12893;DHT22;6514;48.606;9.222;2023-07-30T05:57:50;18.00;99.90
12893;DHT22;6514;48.606;9.222;2023-07-30T06:00:19;18.00;99.90
12893;DHT22;6514;48.606;9.222;2023-07-30T06:02:45;18.10;99.90
12893;DHT22;6514;48.606;9.222;2023-07-30T06:05:12;18.20;99.90
12893;DHT22;6514;48.606;9.222;2023-07-30T06:07:39;18.30;99.90
12893;DHT22;6514;48.606;9.222;2023-07-30T06:10:07;18.40;99.90
12893;DHT22;6514;48.606;9.222;2023-07-30T06:12:33;18.50;99.90
12893;DHT22;6514;48.606;9.222;2023-07-30T06:15:02;18.60;99.90
12893;DHT22;6514;48.606;9.222;2023-07-30T06:17:29;18.70;99.90
12893;DHT22;6514;48.606;9.222;2023-07-30T06:19:55;18.80;99.90
12893;DHT22;6514;48.606;9.222;2023-07-30T06:22:22;18.80;99.90
12893;DHT22;6514;48.606;9.222;2023-07-30T06:24:49;18.80;99.90
12893;DHT22;6514;48.606;9.222;2023-07-30T06:27:16;18.90;99.90
12893;DHT22;6514;48.606;9.222;2023-07-30T06:29:42;18.90;99.90
12893;DHT22;6514;48.606;9.222;2023-07-30T06:32:10;19.00;99.90
12893;DHT22;6514;48.606;9.222;2023-07-30T06:34:37;19.00;99.90
12893;DHT22;6514;48.606;9.222;2023-07-30T06:37:04;19.10;99.90
12893;DHT22;6514;48.606;9.222;2023-07-30T06:39:31;19.20;99.90
12893;DHT22;6514;48.606;9.222;2023-07-30T06:41:57;19.40;99.90
12893;DHT22;6514;48.606;9.222;2023-07-30T06:44:24;19.40;99.90
12893;DHT22;6514;48.606;9.222;2023-07-30T06:46:51;19.50;99.90
12893;DHT22;6514;48.606;9.222;2023-07-30T06:49:19;19.60;99.90
12893;DHT22;6514;48.606;9.222;2023-07-30T06:51:47;19.70;99.90
12893;DHT22;6514;48.606;9.222;2023-07-30T06:54:13;19.80;99.90
12893;DHT22;6514;48.606;9.222;2023-07-30T06:56:40;19.80;99.90
12893;DHT22;6514;48.606;9.222;2023-07-30T06:59:07;19.90;99.90
12893;DHT22;6514;48.606;9.222;2023-07-30T07:01:34;20.00;99.90
12893;DHT22;6514;48.606;9.222;2023-07-30T07:04:00;20.30;99.90
12893;DHT22;6514;48.606;9.222;2023-07-30T07:06:29;20.70;99.90
12893;DHT22;6514;48.606;9.222;2023-07-30T07:08:55;21.20;99.90
12893;DHT22;6514;48.606;9.222;2023-07-30T07:11:23;21.60;99.90
12893;DHT22;6514;48.606;9.222;2023-07-30T07:13:50;21.90;99.90
12893;DHT22;6514;48.606;9.222;2023-07-30T07:16:17;22.20;99.90
12893;DHT22;6514;48.606;9.222;2023-07-30T07:18:44;22.50;99.90
12893;DHT22;6514;48.606;9.222;2023-07-30T07:21:11;22.60;99.90
12893;DHT22;6514;48.606;9.222;2023-07-30T07:23:39;22.50;99.90
12893;DHT22;6514;48.606;9.222;2023-07-30T07:26:06;22.20;99.90
12893;DHT22;6514;48.606;9.222;2023-07-30T07:28:33;21.90;99.90
12893;DHT22;6514;48.606;9.222;2023-07-30T07:31:00;21.50;99.90
12893;DHT22;6514;48.606;9.222;2023-07-30T07:33:27;21.10;99.90
12893;DHT22;6514;48.606;9.222;2023-07-30T07:36:03;20.80;99.90
12893;DHT22;6514;48.606;9.222;2023-07-30T07:38:30;20.40;99.90
12893;DHT22;6514;48.606;9.222;2023-07-30T07:40:58;20.00;99.90
12893;DHT22;6514;48.606;9.222;2023-07-30T07:43:25;19.60;99.90
12893;DHT22;6514;48.606;9.222;2023-07-30T07:45:51;19.20;99.90
12893;DHT22;6514;48.606;9.222;2023-07-30T07:48:19;18.80;99.90
12893;DHT22;6514;48.606;9.222;2023-07-30T07:50:45;18.60;99.90
12893;DHT22;6514;48.606;9.222;2023-07-30T07:53:12;18.60;99.90
12893;DHT22;6514;48.606;9.222;2023-07-30T07:55:39;18.50;99.90
12893;DHT22;6514;48.606;9.222;2023-07-30T07:58:07;18.50;99.90
12893;DHT22;6514;48.606;9.222;2023-07-30T08:00:34;18.70;99.90
12893;DHT22;6514;48.606;9.222;2023-07-30T08:03:01;18.90;99.90
12893;DHT22;6514;48.606;9.222;2023-07-30T08:05:27;19.10;99.90
12893;DHT22;6514;48.606;9.222;2023-07-30T08:07:54;19.30;99.90
12893;DHT22;6514;48.606;9.222;2023-07-30T08:10:21;19.50;99.90
12893;DHT22;6514;48.606;9.222;2023-07-30T08:12:48;19.60;99.90
12893;DHT22;6514;48.606;9.222;2023-07-30T08:15:16;19.70;99.90
12893;DHT22;6514;48.606;9.222;2023-07-30T08:17:43;19.80;99.90
12893;DHT22;6514;48.606;9.222;2023-07-30T08:20:10;19.90;99.90
12893;DHT22;6514;48.606;9.222;2023-07-30T08:22:37;20.10;99.90
12893;DHT22;6514;48.606;9.222;2023-07-30T08:25:05;20.30;99.90
12893;DHT22;6514;48.606;9.222;2023-07-30T08:27:32;20.40;99.90
12893;DHT22;6514;48.606;9.222;2023-07-30T08:29:59;20.60;99.90
12893;DHT22;6514;48.606;9.222;2023-07-30T08:32:27;21.00;99.90
12893;DHT22;6514;48.606;9.222;2023-07-30T08:34:53;21.30;99.90
12893;DHT22;6514;48.606;9.222;2023-07-30T08:37:20;21.50;99.90
12893;DHT22;6514;48.606;9.222;2023-07-30T08:39:47;21.80;99.90
12893;DHT22;6514;48.606;9.222;2023-07-30T08:42:14;22.00;99.90
12893;DHT22;6514;48.606;9.222;2023-07-30T08:44:41;22.30;99.90
12893;DHT22;6514;48.606;9.222;2023-07-30T08:47:08;22.90;99.90
12893;DHT22;6514;48.606;9.222;2023-07-30T08:49:36;23.40;99.90
12893;DHT22;6514;48.606;9.222;2023-07-30T08:52:04;23.80;99.90
12893;DHT22;6514;48.606;9.222;2023-07-30T08:54:34;24.30;99.90
12893;DHT22;6514;48.606;9.222;2023-07-30T08:57:03;24.60;99.90
12893;DHT22;6514;48.606;9.222;2023-07-30T08:59:33;24.50;99.90
12893;DHT22;6514;48.606;9.222;2023-07-30T09:02:04;24.60;99.90
12893;DHT22;6514;48.606;9.222;2023-07-30T09:04:37;24.90;99.90
12893;DHT22;6514;48.606;9.222;2023-07-30T09:07:08;25.00;99.90
12893;DHT22;6514;48.606;9.222;2023-07-30T09:09:35;24.90;99.90
12893;DHT22;6514;48.606;9.222;2023-07-30T09:12:04;25.10;99.90
12893;DHT22;6514;48.606;9.222;2023-07-30T09:14:31;24.80;99.90
12893;DHT22;6514;48.606;9.222;2023-07-30T09:16:58;24.50;99.90
12893;DHT22;6514;48.606;9.222;2023-07-30T09:19:25;24.10;99.90
12893;DHT22;6514;48.606;9.222;2023-07-30T09:21:54;23.70;99.90
12893;DHT22;6514;48.606;9.222;2023-07-30T09:24:21;23.70;99.90
12893;DHT22;6514;48.606;9.222;2023-07-30T09:26:48;23.90;99.90
12893;DHT22;6514;48.606;9.222;2023-07-30T09:29:15;24.10;99.90
12893;DHT22;6514;48.606;9.222;2023-07-30T09:31:48;24.20;99.90
12893;DHT22;6514;48.606;9.222;2023-07-30T09:34:17;24.00;99.90
12893;DHT22;6514;48.606;9.222;2023-07-30T09:36:44;23.80;99.90
12893;DHT22;6514;48.606;9.222;2023-07-30T09:39:17;23.60;99.90
12893;DHT22;6514;48.606;9.222;2023-07-30T09:41:45;23.30;99.90
12893;DHT22;6514;48.606;9.222;2023-07-30T09:44:13;22.90;99.90
12893;DHT22;6514;48.606;9.222;2023-07-30T09:46:45;22.50;99.90
12893;DHT22;6514;48.606;9.222;2023-07-30T09:49:12;22.00;99.90
12893;DHT22;6514;48.606;9.222;2023-07-30T09:51:39;21.60;99.90
12893;DHT22;6514;48.606;9.222;2023-07-30T09:54:06;21.10;99.90
12893;DHT22;6514;48.606;9.222;2023-07-30T09:56:36;20.70;99.90
12893;DHT22;6514;48.606;9.222;2023-07-30T09:59:03;20.30;99.90
12893;DHT22;6514;48.606;9.222;2023-07-30T10:01:30;20.00;99.90
12893;DHT22;6514;48.606;9.222;2023-07-30T10:03:57;19.80;99.90
12893;DHT22;6514;48.606;9.222;2023-07-30T10:06:27;19.90;99.90
12893;DHT22;6514;48.606;9.222;2023-07-30T10:08:57;19.80;99.90
12893;DHT22;6514;48.606;9.222;2023-07-30T10:11:26;20.10;99.90
12893;DHT22;6514;48.606;9.222;2023-07-30T10:13:56;20.50;99.90
12893;DHT22;6514;48.606;9.222;2023-07-30T10:16:25;20.90;99.90
12893;DHT22;6514;48.606;9.222;2023-07-30T10:18:56;21.40;99.90
12893;DHT22;6514;48.606;9.222;2023-07-30T10:21:25;21.60;99.90
12893;DHT22;6514;48.606;9.222;2023-07-30T10:23:59;22.00;99.90
12893;DHT22;6514;48.606;9.222;2023-07-30T10:26:27;22.70;99.90
12893;DHT22;6514;48.606;9.222;2023-07-30T10:29:11;23.00;99.90
12893;DHT22;6514;48.606;9.222;2023-07-30T10:31:41;23.30;99.90
12893;DHT22;6514;48.606;9.222;2023-07-30T10:34:09;23.90;99.90
12893;DHT22;6514;48.606;9.222;2023-07-30T10:36:42;24.10;99.90
12893;DHT22;6514;48.606;9.222;2023-07-30T10:39:14;24.20;99.90
12893;DHT22;6514;48.606;9.222;2023-07-30T10:41:44;24.00;99.90
12893;DHT22;6514;48.606;9.222;2023-07-30T10:44:26;23.70;99.90
12893;DHT22;6514;48.606;9.222;2023-07-30T10:46:54;23.40;99.90
12893;DHT22;6514;48.606;9.222;2023-07-30T10:49:21;23.30;99.90
12893;DHT22;6514;48.606;9.222;2023-07-30T10:51:48;23.30;99.90
12893;DHT22;6514;48.606;9.222;2023-07-30T10:54:15;23.20;99.90
12893;DHT22;6514;48.606;9.222;2023-07-30T10:56:42;23.40;99.90
12893;DHT22;6514;48.606;9.222;2023-07-30T10:59:10;24.00;99.90
12893;DHT22;6514;48.606;9.222;2023-07-30T11:01:39;24.50;99.90
12893;DHT22;6514;48.606;9.222;2023-07-30T11:04:08;25.20;99.90
12893;DHT22;6514;48.606;9.222;2023-07-30T11:06:35;25.70;99.90
12893;DHT22;6514;48.606;9.222;2023-07-30T11:09:02;25.60;99.90
12893;DHT22;6514;48.606;9.222;2023-07-30T11:11:30;25.70;99.90
12893;DHT22;6514;48.606;9.222;2023-07-30T11:13:57;25.90;99.90
12893;DHT22;6514;48.606;9.222;2023-07-30T11:16:24;26.20;99.90
12893;DHT22;6514;48.606;9.222;2023-07-30T11:18:53;26.60;99.90
12893;DHT22;6514;48.606;9.222;2023-07-30T11:21:20;26.90;99.90
12893;DHT22;6514;48.606;9.222;2023-07-30T11:23:47;27.20;99.90
12893;DHT22;6514;48.606;9.222;2023-07-30T11:26:16;27.00;99.90
12893;DHT22;6514;48.606;9.222;2023-07-30T11:28:43;26.70;99.90
12893;DHT22;6514;48.606;9.222;2023-07-30T11:31:12;26.50;99.90
12893;DHT22;6514;48.606;9.222;2023-07-30T11:33:40;26.10;99.90
12893;DHT22;6514;48.606;9.222;2023-07-30T11:36:11;25.70;99.90
12893;DHT22;6514;48.606;9.222;2023-07-30T11:38:39;25.60;99.90
12893;DHT22;6514;48.606;9.222;2023-07-30T11:41:07;25.90;99.90
12893;DHT22;6514;48.606;9.222;2023-07-30T11:43:37;26.50;99.90
12893;DHT22;6514;48.606;9.222;2023-07-30T11:46:10;26.70;99.90
12893;DHT22;6514;48.606;9.222;2023-07-30T11:48:37;26.80;99.90
12893;DHT22;6514;48.606;9.222;2023-07-30T11:51:04;27.30;99.90
12893;DHT22;6514;48.606;9.222;2023-07-30T11:53:46;27.50;99.90
12893;DHT22;6514;48.606;9.222;2023-07-30T11:56:22;27.10;99.90
12893;DHT22;6514;48.606;9.222;2023-07-30T11:58:50;27.10;99.90
12893;DHT22;6514;48.606;9.222;2023-07-30T12:01:18;27.50;99.90
12893;DHT22;6514;48.606;9.222;2023-07-30T12:03:45;28.00;99.90
12893;DHT22;6514;48.606;9.222;2023-07-30T12:06:12;28.00;99.90
12893;DHT22;6514;48.606;9.222;2023-07-30T12:08:39;28.50;99.90
12893;DHT22;6514;48.606;9.222;2023-07-30T12:11:08;28.30;99.90
12893;DHT22;6514;48.606;9.222;2023-07-30T12:13:42;27.50;99.90
12893;DHT22;6514;48.606;9.222;2023-07-30T12:16:11;27.00;99.90
12893;DHT22;6514;48.606;9.222;2023-07-30T12:18:38;26.90;99.90
12893;DHT22;6514;48.606;9.222;2023-07-30T12:21:05;27.10;99.90
12893;DHT22;6514;48.606;9.222;2023-07-30T12:23:33;27.40;99.90
12893;DHT22;6514;48.606;9.222;2023-07-30T12:26:00;27.40;99.90
12893;DHT22;6514;48.606;9.222;2023-07-30T12:28:31;27.40;99.90
12893;DHT22;6514;48.606;9.222;2023-07-30T12:30:58;27.40;99.90
12893;DHT22;6514;48.606;9.222;2023-07-30T12:33:25;27.80;99.90
12893;DHT22;6514;48.606;9.222;2023-07-30T12:35:51;28.10;99.90
12893;DHT22;6514;48.606;9.222;2023-07-30T12:38:18;28.30;99.90
12893;DHT22;6514;48.606;9.222;2023-07-30T12:40:45;28.40;99.90
12893;DHT22;6514;48.606;9.222;2023-07-30T12:43:12;28.50;99.90
12893;DHT22;6514;48.606;9.222;2023-07-30T12:45:41;28.60;99.90
12893;DHT22;6514;48.606;9.222;2023-07-30T12:48:07;28.70;99.90
12893;DHT22;6514;48.606;9.222;2023-07-30T12:50:34;28.90;99.90
12893;DHT22;6514;48.606;9.222;2023-07-30T12:53:01;28.70;99.90
12893;DHT22;6514;48.606;9.222;2023-07-30T12:55:28;28.40;99.90
12893;DHT22;6514;48.606;9.222;2023-07-30T12:57:55;28.20;99.90
12893;DHT22;6514;48.606;9.222;2023-07-30T13:00:21;27.80;99.90
12893;DHT22;6514;48.606;9.222;2023-07-30T13:02:49;26.90;99.90
12893;DHT22;6514;48.606;9.222;2023-07-30T13:05:18;26.50;99.90
12893;DHT22;6514;48.606;9.222;2023-07-30T13:07:45;26.20;99.90
12893;DHT22;6514;48.606;9.222;2023-07-30T13:10:12;26.00;99.90
12893;DHT22;6514;48.606;9.222;2023-07-30T13:12:40;25.90;99.90
12893;DHT22;6514;48.606;9.222;2023-07-30T13:15:07;26.00;99.90
12893;DHT22;6514;48.606;9.222;2023-07-30T13:17:34;26.30;99.90
12893;DHT22;6514;48.606;9.222;2023-07-30T13:20:03;27.10;99.90
12893;DHT22;6514;48.606;9.222;2023-07-30T13:22:30;27.60;99.90
12893;DHT22;6514;48.606;9.222;2023-07-30T13:24:57;28.10;99.90
12893;DHT22;6514;48.606;9.222;2023-07-30T13:27:24;28.40;99.90
12893;DHT22;6514;48.606;9.222;2023-07-30T13:29:50;28.60;99.90
12893;DHT22;6514;48.606;9.222;2023-07-30T13:32:17;29.00;99.90
12893;DHT22;6514;48.606;9.222;2023-07-30T13:34:44;29.20;99.90
12893;DHT22;6514;48.606;9.222;2023-07-30T13:37:12;28.60;99.90
12893;DHT22;6514;48.606;9.222;2023-07-30T13:39:39;28.10;99.90
12893;DHT22;6514;48.606;9.222;2023-07-30T13:42:06;27.70;99.90
12893;DHT22;6514;48.606;9.222;2023-07-30T13:44:33;27.10;99.90
12893;DHT22;6514;48.606;9.222;2023-07-30T13:46:59;26.80;99.90
12893;DHT22;6514;48.606;9.222;2023-07-30T13:49:26;26.80;99.90
12893;DHT22;6514;48.606;9.222;2023-07-30T13:51:53;26.90;99.90
12893;DHT22;6514;48.606;9.222;2023-07-30T13:54:21;27.20;99.90
12893;DHT22;6514;48.606;9.222;2023-07-30T13:56:48;27.50;99.90
12893;DHT22;6514;48.606;9.222;2023-07-30T13:59:15;27.40;99.90
12893;DHT22;6514;48.606;9.222;2023-07-30T14:01:41;26.80;99.90
12893;DHT22;6514;48.606;9.222;2023-07-30T14:04:08;26.40;99.90
12893;DHT22;6514;48.606;9.222;2023-07-30T14:06:35;26.50;99.90
12893;DHT22;6514;48.606;9.222;2023-07-30T14:09:02;26.80;99.90
12893;DHT22;6514;48.606;9.222;2023-07-30T14:11:31;27.00;99.90
12893;DHT22;6514;48.606;9.222;2023-07-30T14:13:58;27.10;99.90
12893;DHT22;6514;48.606;9.222;2023-07-30T14:16:25;27.30;99.90
12893;DHT22;6514;48.606;9.222;2023-07-30T14:18:51;27.60;99.90
12893;DHT22;6514;48.606;9.222;2023-07-30T14:21:18;28.00;99.90
12893;DHT22;6514;48.606;9.222;2023-07-30T14:23:45;28.10;99.90
12893;DHT22;6514;48.606;9.222;2023-07-30T14:26:12;27.90;99.90
12893;DHT22;6514;48.606;9.222;2023-07-30T14:28:40;27.80;99.90
12893;DHT22;6514;48.606;9.222;2023-07-30T14:31:07;28.10;99.90
12893;DHT22;6514;48.606;9.222;2023-07-30T14:33:34;28.20;99.90
12893;DHT22;6514;48.606;9.222;2023-07-30T14:36:02;27.70;99.90
12893;DHT22;6514;48.606;9.222;2023-07-30T14:38:29;27.30;99.90
12893;DHT22;6514;48.606;9.222;2023-07-30T14:40:57;27.00;99.90
12893;DHT22;6514;48.606;9.222;2023-07-30T14:43:24;27.00;99.90
12893;DHT22;6514;48.606;9.222;2023-07-30T14:45:52;26.90;99.90
12893;DHT22;6514;48.606;9.222;2023-07-30T14:48:19;26.60;99.90
12893;DHT22;6514;48.606;9.222;2023-07-30T14:50:45;26.30;99.90
12893;DHT22;6514;48.606;9.222;2023-07-30T14:53:12;26.10;99.90
12893;DHT22;6514;48.606;9.222;2023-07-30T14:55:39;26.40;99.90
12893;DHT22;6514;48.606;9.222;2023-07-30T14:58:06;26.70;99.90
12893;DHT22;6514;48.606;9.222;2023-07-30T15:00:34;26.70;99.90
12893;DHT22;6514;48.606;9.222;2023-07-30T15:03:02;26.70;99.90
12893;DHT22;6514;48.606;9.222;2023-07-30T15:05:30;26.30;99.90
12893;DHT22;6514;48.606;9.222;2023-07-30T15:07:57;26.00;99.90
12893;DHT22;6514;48.606;9.222;2023-07-30T15:10:24;25.70;99.90
12893;DHT22;6514;48.606;9.222;2023-07-30T15:12:51;25.40;99.90
12893;DHT22;6514;48.606;9.222;2023-07-30T15:15:18;25.10;99.90
12893;DHT22;6514;48.606;9.222;2023-07-30T15:17:45;24.80;99.90
12893;DHT22;6514;48.606;9.222;2023-07-30T15:20:13;24.60;99.90
12893;DHT22;6514;48.606;9.222;2023-07-30T15:22:40;24.60;99.90
12893;DHT22;6514;48.606;9.222;2023-07-30T15:25:07;24.60;99.90
12893;DHT22;6514;48.606;9.222;2023-07-30T15:27:33;24.80;99.90
12893;DHT22;6514;48.606;9.222;2023-07-30T15:30:00;24.80;99.90
12893;DHT22;6514;48.606;9.222;2023-07-30T15:32:29;24.60;99.90
12893;DHT22;6514;48.606;9.222;2023-07-30T15:34:56;24.80;99.90
12893;DHT22;6514;48.606;9.222;2023-07-30T15:37:24;25.20;99.90
12893;DHT22;6514;48.606;9.222;2023-07-30T15:39:51;25.70;99.90
12893;DHT22;6514;48.606;9.222;2023-07-30T15:42:18;25.70;99.90
12893;DHT22;6514;48.606;9.222;2023-07-30T15:44:45;25.70;99.90
12893;DHT22;6514;48.606;9.222;2023-07-30T15:47:11;25.60;99.90